Time;durP1;ratioP1;P1;durP2;ratioP2;P2;SDS_P1;SDS_P2;PMS_P1;PMS_P2;Temp;Humidity;BMP_temperature;BMP_pressure;BME280_temperature;BME280_humidity;BME280_pressure;Samples;Min_cycle;Max_cycle;Signal;HPM_P1;HPM_P2
2022/01/16 00:00:16;;;;;;;18.42;10.52;;;3.20;99.90;;;;;;4941279;28;20115;-87
2022/01/16 00:05:31;;;;;;;22.67;12.48;;;3.20;99.90;;;;;;4935492;28;20085;-88
2022/01/16 00:07:58;;;;;;;31.00;15.45;;;3.20;99.90;;;;;;4939938;28;20039;-87
2022/01/16 00:10:25;;;;;;;24.95;12.88;;;3.10;99.90;;;;;;4942483;28;20228;-88
2022/01/16 00:12:52;;;;;;;22.45;11.77;;;3.10;99.90;;;;;;4928207;28;20170;-88
2022/01/16 00:15:19;;;;;;;22.65;9.50;;;3.10;99.90;;;;;;4923487;28;20081;-88
2022/01/16 00:18:09;;;;;;;23.83;10.32;;;3.10;99.90;;;;;;4927523;28;20479;-88
2022/01/16 00:20:35;;;;;;;20.73;10.18;;;3.10;99.90;;;;;;4930293;28;20030;-88
2022/01/16 00:23:03;;;;;;;32.53;15.82;;;3.20;99.90;;;;;;4929882;28;20035;-87
2022/01/16 00:25:29;;;;;;;22.45;9.68;;;3.10;99.90;;;;;;4928550;28;20646;-88
2022/01/16 00:27:54;;;;;;;31.42;13.75;;;3.10;99.90;;;;;;4929008;28;20106;-88
2022/01/16 00:30:19;;;;;;;27.05;12.30;;;3.10;99.90;;;;;;4943010;28;20037;-88
2022/01/16 00:32:46;;;;;;;12.52;6.18;;;3.20;99.90;;;;;;4930722;28;20039;-88
2022/01/16 00:35:11;;;;;;;25.27;11.27;;;3.20;99.90;;;;;;4930948;28;20062;-88
2022/01/16 00:37:38;;;;;;;26.05;11.15;;;3.10;99.90;;;;;;4919513;28;20074;-87
2022/01/16 00:40:05;;;;;;;20.35;11.20;;;3.10;99.90;;;;;;4916221;28;20031;-88
2022/01/16 00:42:30;;;;;;;24.15;11.13;;;3.10;99.90;;;;;;4942039;28;20491;-88
2022/01/16 00:44:56;;;;;;;34.45;14.43;;;3.10;99.90;;;;;;4932031;28;20027;-87
2022/01/16 00:47:21;;;;;;;19.33;8.82;;;3.10;99.90;;;;;;4944565;28;20126;-87
2022/01/16 00:49:47;;;;;;;33.30;14.85;;;3.10;99.90;;;;;;4944717;28;22050;-87
2022/01/16 00:52:12;;;;;;;26.52;11.35;;;3.10;99.90;;;;;;4929062;28;20182;-88
2022/01/16 00:54:38;;;;;;;16.65;7.03;;;3.00;99.90;;;;;;4932550;28;20095;-89
2022/01/16 00:57:04;;;;;;;28.13;13.88;;;3.10;99.90;;;;;;4932531;28;20034;-88
2022/01/16 00:59:30;;;;;;;32.70;14.90;;;3.10;99.90;;;;;;4946101;28;20643;-88
2022/01/16 01:01:55;;;;;;;21.80;10.15;;;3.00;99.90;;;;;;4934450;28;20043;-88
2022/01/16 01:04:21;;;;;;;30.23;11.20;;;3.00;99.90;;;;;;4932441;28;20089;-88
2022/01/16 01:06:49;;;;;;;24.10;12.05;;;3.00;99.90;;;;;;4931996;28;20031;-88
2022/01/16 01:09:15;;;;;;;25.83;11.07;;;3.00;99.90;;;;;;4948141;28;20054;-88
2022/01/16 01:11:43;;;;;;;15.95;8.73;;;3.00;99.90;;;;;;4931485;28;20039;-87
2022/01/16 01:14:16;;;;;;;25.33;12.52;;;3.10;99.90;;;;;;4945615;28;20166;-88
2022/01/16 01:19:16;;;;;;;20.17;10.68;;;3.00;99.90;;;;;;4943069;28;20023;-87
2022/01/16 01:21:41;;;;;;;12.57;5.68;;;2.90;99.90;;;;;;4929919;28;20035;-88
2022/01/16 01:24:07;;;;;;;24.58;13.68;;;2.90;99.90;;;;;;4928284;28;20503;-88
2022/01/16 01:26:40;;;;;;;21.88;11.07;;;3.00;99.90;;;;;;4948182;28;20027;-88
2022/01/16 01:29:06;;;;;;;13.07;6.78;;;2.90;99.90;;;;;;4935352;28;20041;-87
2022/01/16 01:31:31;;;;;;;22.27;11.63;;;3.00;99.90;;;;;;4927586;28;20039;-87
2022/01/16 01:33:57;;;;;;;16.52;7.78;;;2.90;99.90;;;;;;4929807;28;20031;-88
2022/01/16 01:36:23;;;;;;;18.75;9.77;;;2.90;99.90;;;;;;4930493;28;20039;-88
2022/01/16 01:38:48;;;;;;;10.10;4.20;;;2.90;99.90;;;;;;4930396;28;20049;-87
2022/01/16 01:41:14;;;;;;;19.42;9.75;;;2.80;99.90;;;;;;4928587;28;20407;-88
2022/01/16 01:51:37;;;;;;;23.45;11.45;;;2.90;99.90;;;;;;4942152;28;22380;-87
2022/01/16 01:54:03;;;;;;;9.75;5.20;;;2.90;99.90;;;;;;4916623;28;20035;-88
2022/01/16 01:56:29;;;;;;;24.17;12.27;;;2.90;99.90;;;;;;4931345;28;20452;-87
2022/01/16 01:58:56;;;;;;;20.00;11.02;;;2.90;99.90;;;;;;4930964;28;20117;-87
2022/01/16 02:01:21;;;;;;;19.13;10.73;;;2.90;99.90;;;;;;4920404;28;20046;-87
2022/01/16 02:03:48;;;;;;;21.98;11.40;;;2.90;99.90;;;;;;4930668;28;20051;-87
2022/01/16 02:06:15;;;;;;;22.40;11.43;;;2.80;99.90;;;;;;4929037;28;20038;-87
2022/01/16 02:08:47;;;;;;;26.77;13.52;;;2.80;99.90;;;;;;4929958;28;20448;-87
2022/01/16 02:11:13;;;;;;;28.10;13.25;;;2.70;99.90;;;;;;4930286;28;20042;-87
2022/01/16 02:13:51;;;;;;;20.65;10.05;;;2.70;99.90;;;;;;4943471;28;20847;-87
2022/01/16 02:35:11;;;;;;;29.77;15.40;;;2.70;99.90;;;;;;4941219;28;20400;-87
2022/01/16 02:37:37;;;;;;;14.30;6.30;;;2.70;99.90;;;;;;4915310;28;20516;-88
2022/01/16 02:40:11;;;;;;;23.85;11.75;;;2.70;99.90;;;;;;4934784;28;20037;-87
2022/01/16 02:42:40;;;;;;;28.38;14.88;;;2.70;99.90;;;;;;4958157;28;20360;-88
2022/01/16 02:45:07;;;;;;;31.27;15.02;;;2.70;99.90;;;;;;4927689;28;20424;-87
2022/01/16 02:47:32;;;;;;;32.65;15.80;;;2.70;99.90;;;;;;4929383;28;20089;-88
2022/01/16 02:49:59;;;;;;;37.97;16.70;;;2.70;99.90;;;;;;4916335;28;20035;-87
2022/01/16 02:52:25;;;;;;;36.72;17.50;;;2.60;99.90;;;;;;4915071;28;20042;-87
2022/01/16 02:54:53;;;;;;;24.23;10.95;;;2.60;99.90;;;;;;4941839;28;20035;-87
2022/01/16 02:57:20;;;;;;;23.35;9.88;;;2.60;99.90;;;;;;4932918;28;20046;-87
2022/01/16 03:00:04;;;;;;;18.60;7.75;;;2.60;99.90;;;;;;4929078;28;20031;-87
2022/01/16 03:02:29;;;;;;;36.95;18.63;;;2.70;99.90;;;;;;4912893;28;20031;-87
2022/01/16 03:04:55;;;;;;;35.97;17.30;;;2.70;99.90;;;;;;4930270;28;20134;-87
2022/01/16 03:07:22;;;;;;;24.95;11.80;;;2.60;99.90;;;;;;4928601;28;20051;-87
2022/01/16 03:12:35;;;;;;;21.52;10.40;;;2.60;99.90;;;;;;4945151;28;20565;-87
2022/01/16 03:15:00;;;;;;;43.42;20.05;;;2.60;99.90;;;;;;4914264;28;20045;-87
2022/01/16 03:17:38;;;;;;;37.85;18.27;;;2.60;99.90;;;;;;4930419;28;20054;-88
2022/01/16 03:22:49;;;;;;;43.35;20.10;;;2.60;99.90;;;;;;4954984;28;20062;-88
2022/01/16 03:25:16;;;;;;;15.43;8.77;;;2.60;99.90;;;;;;4934113;28;20038;-87
2022/01/16 03:27:41;;;;;;;28.58;15.20;;;2.70;99.90;;;;;;4929420;28;20121;-87
2022/01/16 03:30:07;;;;;;;49.53;22.90;;;2.60;99.90;;;;;;4932181;28;20123;-87
2022/01/16 03:32:33;;;;;;;18.17;8.85;;;2.60;99.90;;;;;;4926300;28;20282;-87
2022/01/16 03:34:59;;;;;;;22.98;13.15;;;2.60;99.90;;;;;;4942172;28;20039;-87
2022/01/16 03:37:24;;;;;;;51.72;19.70;;;2.70;99.90;;;;;;4916431;28;20028;-88
2022/01/16 03:39:50;;;;;;;32.17;10.88;;;2.60;99.90;;;;;;4941557;28;20034;-87
2022/01/16 03:42:22;;;;;;;49.10;21.83;;;2.60;99.90;;;;;;4930432;28;20020;-87
2022/01/16 03:44:48;;;;;;;29.92;12.05;;;2.60;99.90;;;;;;4927951;28;20027;-86
2022/01/16 03:47:13;;;;;;;27.02;12.73;;;2.60;99.90;;;;;;4940844;28;20053;-87
2022/01/16 03:49:39;;;;;;;54.08;23.15;;;2.60;99.90;;;;;;4930116;28;20035;-87
2022/01/16 03:52:04;;;;;;;41.22;18.42;;;2.60;99.90;;;;;;4927981;28;20035;-87
2022/01/16 03:54:31;;;;;;;54.00;23.88;;;2.60;99.90;;;;;;4941734;28;20051;-88
2022/01/16 03:56:57;;;;;;;59.35;29.15;;;2.60;99.90;;;;;;4941721;28;20030;-87
2022/01/16 03:59:22;;;;;;;35.17;16.60;;;2.60;99.90;;;;;;4927669;28;20067;-87
2022/01/16 04:01:48;;;;;;;37.88;14.57;;;2.60;99.90;;;;;;4941363;28;20129;-87
2022/01/16 04:04:13;;;;;;;45.83;17.00;;;2.60;99.90;;;;;;4932762;28;20039;-88
2022/01/16 04:06:39;;;;;;;34.88;12.60;;;2.60;99.90;;;;;;4927155;28;20573;-88
2022/01/16 04:09:05;;;;;;;57.97;25.30;;;2.60;99.90;;;;;;4935273;28;20031;-88
2022/01/16 04:11:31;;;;;;;36.72;16.85;;;2.60;99.90;;;;;;4935412;28;20034;-87
2022/01/16 04:15:31;;;;;;;20.38;9.82;;;2.60;99.90;;;;;;4942613;28;20474;-87
2022/01/16 04:16:48;;;;;;;28.05;14.27;;;2.60;99.90;;;;;;4944858;28;20086;-88
2022/01/16 04:19:14;;;;;;;21.67;9.43;;;2.60;99.90;;;;;;4946624;28;20424;-88
2022/01/16 04:21:39;;;;;;;48.92;21.38;;;2.60;99.90;;;;;;4930280;28;20035;-87
2022/01/16 04:24:05;;;;;;;57.05;24.48;;;2.60;99.90;;;;;;4943862;28;20043;-88
2022/01/16 04:26:30;;;;;;;45.40;19.33;;;2.60;99.90;;;;;;4928425;28;20495;-88
2022/01/16 04:28:56;;;;;;;39.33;20.25;;;2.60;99.90;;;;;;4934220;28;20039;-87
2022/01/16 04:31:22;;;;;;;38.80;20.58;;;2.50;99.90;;;;;;4933761;28;20035;-87
2022/01/16 04:33:47;;;;;;;53.05;23.98;;;2.50;99.90;;;;;;4931873;28;20041;-88
2022/01/16 04:36:13;;;;;;;47.50;21.02;;;2.50;99.90;;;;;;4941738;28;20479;-87
2022/01/16 04:38:44;;;;;;;24.08;14.07;;;2.50;99.90;;;;;;4932883;28;20560;-87
2022/01/16 04:43:55;;;;;;;35.63;13.73;;;2.50;99.90;;;;;;4933836;28;20123;-87
2022/01/16 04:46:22;;;;;;;33.42;16.17;;;2.50;99.90;;;;;;4944299;28;20572;-86
2022/01/16 04:48:48;;;;;;;56.13;23.20;;;2.60;99.90;;;;;;4935049;28;20034;-88
2022/01/16 04:51:13;;;;;;;59.28;28.92;;;2.60;99.90;;;;;;4931644;28;20035;-87
2022/01/16 04:53:39;;;;;;;44.22;22.77;;;2.60;99.90;;;;;;4910561;28;20522;-87
2022/01/16 04:56:05;;;;;;;44.92;21.52;;;2.60;99.90;;;;;;4931470;28;20392;-87
2022/01/16 04:58:30;;;;;;;43.60;21.55;;;2.60;99.90;;;;;;4942800;28;20031;-87
2022/01/16 05:00:56;;;;;;;46.40;20.77;;;2.60;99.90;;;;;;4932832;28;20093;-88
2022/01/16 05:03:25;;;;;;;42.50;17.92;;;2.60;99.90;;;;;;4933877;28;20030;-87
2022/01/16 05:05:50;;;;;;;33.30;16.17;;;2.60;99.90;;;;;;4930308;28;20135;-86
2022/01/16 05:08:16;;;;;;;39.67;15.93;;;2.60;99.90;;;;;;4950199;28;20106;-88
2022/01/16 05:10:44;;;;;;;57.58;23.35;;;2.60;99.90;;;;;;4933768;28;20038;-87
2022/01/16 05:18:46;;;;;;;51.35;21.15;;;2.60;99.90;;;;;;4935975;28;20070;-88
2022/01/16 05:21:11;;;;;;;34.13;13.52;;;2.60;99.90;;;;;;4942723;28;20055;-87
2022/01/16 05:23:37;;;;;;;77.88;34.03;;;2.60;99.90;;;;;;4928946;28;20117;-88
2022/01/16 05:26:04;;;;;;;33.60;14.10;;;2.60;99.90;;;;;;4914941;28;20094;-88
2022/01/16 05:28:29;;;;;;;21.17;10.88;;;2.60;99.90;;;;;;4927852;28;20041;-87
2022/01/16 05:30:55;;;;;;;39.97;17.85;;;2.60;99.90;;;;;;4935407;28;20032;-87
2022/01/16 05:33:20;;;;;;;65.75;25.88;;;2.60;99.90;;;;;;4942951;28;20127;-87
2022/01/16 05:35:46;;;;;;;62.28;25.58;;;2.60;99.90;;;;;;4930568;28;20031;-87
2022/01/16 05:38:12;;;;;;;32.63;13.52;;;2.60;99.90;;;;;;4939928;28;20047;-88
2022/01/16 05:40:37;;;;;;;76.40;30.48;;;2.60;99.90;;;;;;4930061;28;20121;-88
2022/01/16 05:43:03;;;;;;;79.50;35.10;;;2.60;99.90;;;;;;4931056;28;20032;-87
2022/01/16 05:45:29;;;;;;;52.88;20.85;;;2.60;99.90;;;;;;4926014;28;20051;-87
2022/01/16 05:47:54;;;;;;;56.90;22.40;;;2.60;99.90;;;;;;4928114;28;20377;-87
2022/01/16 05:50:20;;;;;;;33.65;14.85;;;2.60;99.90;;;;;;4939731;28;20038;-87
2022/01/16 05:52:46;;;;;;;36.88;15.00;;;2.60;99.90;;;;;;4920060;28;20039;-87
2022/01/16 05:55:12;;;;;;;70.03;33.72;;;2.60;99.90;;;;;;4943863;28;20035;-87
2022/01/16 05:57:37;;;;;;;73.63;27.40;;;2.60;99.90;;;;;;4929162;28;20102;-88
2022/01/16 06:00:06;;;;;;;35.28;19.45;;;2.70;99.90;;;;;;4926606;28;20050;-87
2022/01/16 06:02:32;;;;;;;79.38;34.85;;;2.60;99.90;;;;;;4948069;28;20034;-87
2022/01/16 06:04:57;;;;;;;81.78;33.65;;;2.60;99.90;;;;;;4939720;28;20030;-88
2022/01/16 06:07:23;;;;;;;63.47;25.60;;;2.60;99.90;;;;;;4931481;28;20498;-86
2022/01/16 06:09:48;;;;;;;75.45;34.15;;;2.60;99.90;;;;;;4930774;28;20027;-88
2022/01/16 06:12:14;;;;;;;68.35;27.65;;;2.60;99.90;;;;;;4927898;28;20126;-88
2022/01/16 06:14:40;;;;;;;63.97;28.30;;;2.60;99.90;;;;;;4932911;28;20117;-88
2022/01/16 06:17:06;;;;;;;47.42;18.88;;;2.60;99.90;;;;;;4931771;28;20488;-88
2022/01/16 06:19:32;;;;;;;45.22;20.10;;;2.60;99.90;;;;;;4945783;28;20471;-87
2022/01/16 06:21:58;;;;;;;70.22;29.25;;;2.60;99.90;;;;;;4928459;28;20492;-87
2022/01/16 06:24:23;;;;;;;65.97;25.30;;;2.60;99.90;;;;;;4913147;28;20094;-87
2022/01/16 06:26:49;;;;;;;73.82;29.58;;;2.70;99.90;;;;;;4930955;28;20031;-87
2022/01/16 06:29:18;;;;;;;65.00;24.27;;;2.60;99.90;;;;;;4933391;28;20491;-88
2022/01/16 06:31:44;;;;;;;65.68;26.42;;;2.60;99.90;;;;;;4930249;28;20035;-87
2022/01/16 06:34:10;;;;;;;65.25;30.58;;;2.60;99.90;;;;;;4954841;28;20035;-87
2022/01/16 06:36:35;;;;;;;58.05;23.83;;;2.70;99.90;;;;;;4943854;28;20031;-87
2022/01/16 06:39:02;;;;;;;38.38;16.50;;;2.70;99.90;;;;;;4913202;28;20031;-87
2022/01/16 06:41:28;;;;;;;71.90;31.42;;;2.70;99.90;;;;;;4931685;28;20487;-87
2022/01/16 06:43:53;;;;;;;46.88;18.85;;;2.70;99.90;;;;;;4942871;28;20023;-87
2022/01/16 06:46:19;;;;;;;51.78;21.45;;;2.70;99.90;;;;;;4931695;28;20082;-88
2022/01/16 06:48:44;;;;;;;66.80;28.05;;;2.70;99.90;;;;;;4927951;28;20035;-88
2022/01/16 06:51:10;;;;;;;50.60;17.55;;;2.70;99.90;;;;;;4945819;28;20407;-87
2022/01/16 06:53:36;;;;;;;24.00;12.13;;;2.70;99.90;;;;;;4947924;28;20035;-88
2022/01/16 06:56:01;;;;;;;84.88;37.05;;;2.70;99.90;;;;;;4929491;28;20099;-88
2022/01/16 06:58:27;;;;;;;62.22;25.50;;;2.70;99.90;;;;;;4915804;28;20158;-88
2022/01/16 07:00:52;;;;;;;43.80;18.58;;;2.70;99.90;;;;;;4930559;28;20108;-88
2022/01/16 07:03:18;;;;;;;67.55;29.27;;;2.80;99.90;;;;;;4943554;28;20129;-86
2022/01/16 07:05:45;;;;;;;50.15;21.17;;;2.90;99.90;;;;;;4946813;28;20142;-88
2022/01/16 07:08:10;;;;;;;78.35;28.40;;;2.70;99.90;;;;;;4945820;28;20042;-88
2022/01/16 07:10:36;;;;;;;65.25;28.70;;;2.70;99.90;;;;;;4919741;28;20031;-88
2022/01/16 07:13:02;;;;;;;32.90;16.52;;;2.90;99.90;;;;;;4918417;28;20515;-88
2022/01/16 07:15:29;;;;;;;80.40;36.90;;;2.80;99.90;;;;;;4945772;28;20050;-88
2022/01/16 07:17:55;;;;;;;67.72;31.25;;;2.80;99.90;;;;;;4931193;28;20086;-88
2022/01/16 07:20:20;;;;;;;74.65;31.17;;;2.80;99.90;;;;;;4914614;28;20692;-88
2022/01/16 07:22:46;;;;;;;62.40;28.98;;;2.80;99.90;;;;;;4944229;28;20399;-88
2022/01/16 07:25:12;;;;;;;82.82;37.50;;;2.90;99.90;;;;;;4919434;28;20118;-88
2022/01/16 07:27:38;;;;;;;42.95;16.70;;;2.80;99.90;;;;;;4934470;28;20031;-88
2022/01/16 07:30:04;;;;;;;68.88;23.90;;;2.80;99.90;;;;;;4929576;28;20038;-87
2022/01/16 07:32:32;;;;;;;42.00;19.35;;;2.80;99.90;;;;;;4933541;28;20093;-88
2022/01/16 07:34:58;;;;;;;69.82;29.00;;;2.80;99.90;;;;;;4930845;28;20471;-87
2022/01/16 07:37:23;;;;;;;72.15;36.00;;;2.90;99.90;;;;;;4932508;28;20039;-88
2022/01/16 07:39:49;;;;;;;45.47;21.80;;;2.90;99.90;;;;;;4933475;28;20031;-87
2022/01/16 07:42:14;;;;;;;66.50;29.13;;;2.90;99.90;;;;;;4945895;28;20095;-87
2022/01/16 07:44:41;;;;;;;44.80;20.15;;;2.90;99.90;;;;;;4929234;28;20071;-88
2022/01/16 07:47:07;;;;;;;62.15;30.10;;;2.90;99.90;;;;;;4962180;28;20032;-87
2022/01/16 07:49:32;;;;;;;79.95;35.85;;;2.90;99.90;;;;;;4931087;28;20035;-87
2022/01/16 07:51:58;;;;;;;41.00;17.80;;;2.90;99.90;;;;;;4942343;28;20035;-87
2022/01/16 07:54:24;;;;;;;47.25;23.63;;;2.80;99.90;;;;;;4931899;28;20039;-88
2022/01/16 07:56:52;;;;;;;67.88;30.45;;;3.00;99.90;;;;;;4913226;29;20118;-88
2022/01/16 07:59:18;;;;;;;55.40;25.60;;;3.00;99.90;;;;;;4923947;28;20039;-88
2022/01/16 08:01:44;;;;;;;55.55;26.52;;;2.90;99.90;;;;;;4930973;28;20126;-88
2022/01/16 08:04:09;;;;;;;39.10;17.55;;;2.90;99.90;;;;;;4943123;28;20051;-88
2022/01/16 08:06:35;;;;;;;43.25;20.10;;;3.00;99.90;;;;;;4935890;28;20030;-88
2022/01/16 08:09:01;;;;;;;63.45;27.85;;;2.90;99.90;;;;;;4927198;28;20047;-88
2022/01/16 08:11:26;;;;;;;60.13;27.88;;;3.00;99.90;;;;;;4938124;28;20396;-88
2022/01/16 08:13:52;;;;;;;68.60;28.40;;;3.00;99.90;;;;;;4931966;28;20447;-88
2022/01/16 08:16:17;;;;;;;53.80;26.10;;;3.00;99.90;;;;;;4945283;28;20076;-88
2022/01/16 08:18:43;;;;;;;78.22;38.67;;;3.00;99.90;;;;;;4932413;28;20065;-88
2022/01/16 08:21:09;;;;;;;69.57;30.70;;;3.00;99.90;;;;;;4930727;28;20537;-88
2022/01/16 08:23:34;;;;;;;65.70;31.45;;;3.00;99.90;;;;;;4935178;28;20037;-87
2022/01/16 08:26:01;;;;;;;68.05;28.83;;;3.10;99.90;;;;;;4935123;28;20101;-88
2022/01/16 08:28:27;;;;;;;78.82;34.72;;;3.10;99.90;;;;;;4934321;28;20118;-88
2022/01/16 08:30:52;;;;;;;34.80;15.32;;;3.10;99.90;;;;;;4927855;28;20142;-88
2022/01/16 08:33:18;;;;;;;57.78;26.05;;;3.10;99.90;;;;;;4928004;28;20070;-87
2022/01/16 08:35:43;;;;;;;54.17;24.50;;;3.10;99.90;;;;;;4933349;28;20038;-88
2022/01/16 08:38:09;;;;;;;63.42;27.83;;;3.10;99.90;;;;;;4929819;28;20046;-88
2022/01/16 08:40:35;;;;;;;67.57;32.38;;;3.10;99.90;;;;;;4931298;28;20039;-88
2022/01/16 08:43:08;;;;;;;58.33;24.08;;;3.10;99.90;;;;;;4948334;28;20041;-88
2022/01/16 08:45:37;;;;;;;48.58;20.90;;;3.20;99.90;;;;;;4944655;28;20494;-88
2022/01/16 08:48:03;;;;;;;62.88;27.00;;;3.20;99.90;;;;;;4942176;28;20039;-87
2022/01/16 08:50:28;;;;;;;57.45;25.95;;;3.20;99.90;;;;;;4945011;28;20035;-87
2022/01/16 08:52:54;;;;;;;51.83;25.35;;;3.20;99.90;;;;;;4931393;28;20057;-88
2022/01/16 08:55:19;;;;;;;46.63;21.45;;;3.20;99.90;;;;;;4926202;28;20039;-86
2022/01/16 08:57:45;;;;;;;71.28;35.20;;;3.30;99.90;;;;;;4924456;28;20027;-87
2022/01/16 09:00:11;;;;;;;66.85;32.10;;;3.20;99.90;;;;;;4918945;28;20031;-87
2022/01/16 09:02:36;;;;;;;50.50;23.67;;;3.30;99.90;;;;;;4945282;28;20035;-87
2022/01/16 09:05:03;;;;;;;50.50;21.02;;;3.30;99.90;;;;;;4943929;28;20299;-88
2022/01/16 09:07:28;;;;;;;61.65;29.23;;;3.30;99.90;;;;;;4926796;28;20404;-87
2022/01/16 09:09:56;;;;;;;39.33;16.50;;;3.30;99.90;;;;;;4929912;28;20034;-87
2022/01/16 09:12:22;;;;;;;36.38;19.27;;;3.30;99.90;;;;;;4949748;28;20042;-87
2022/01/16 09:14:47;;;;;;;40.03;19.50;;;3.30;99.90;;;;;;4928593;28;20498;-87
2022/01/16 09:17:13;;;;;;;69.75;31.08;;;3.40;99.90;;;;;;4934002;28;20034;-87
2022/01/16 09:19:38;;;;;;;52.78;22.63;;;3.40;99.90;;;;;;4935303;28;20883;-88
2022/01/16 09:22:04;;;;;;;39.63;19.30;;;3.40;99.90;;;;;;4945970;28;20039;-88
2022/01/16 09:24:31;;;;;;;38.00;17.40;;;3.40;99.90;;;;;;4941586;28;20431;-88
2022/01/16 09:27:00;;;;;;;51.97;25.40;;;3.40;99.90;;;;;;4925521;28;20543;-88
2022/01/16 09:29:25;;;;;;;40.67;18.35;;;3.50;99.90;;;;;;4923552;28;20054;-88
2022/01/16 09:31:51;;;;;;;58.28;23.45;;;3.50;99.90;;;;;;4940614;28;20039;-88
2022/01/16 09:34:17;;;;;;;42.30;19.08;;;3.50;99.90;;;;;;4945628;28;20095;-89
2022/01/16 09:36:43;;;;;;;41.80;20.80;;;3.60;99.90;;;;;;4932591;29;20031;-89
2022/01/16 09:39:09;;;;;;;69.95;32.60;;;3.50;99.90;;;;;;4927162;28;20031;-87
2022/01/16 09:41:35;;;;;;;42.33;21.85;;;3.50;99.90;;;;;;4938598;28;20484;-87
2022/01/16 09:44:00;;;;;;;37.10;17.17;;;3.60;99.90;;;;;;4935297;28;20039;-88
2022/01/16 09:46:26;;;;;;;38.83;21.30;;;3.60;99.90;;;;;;4918201;28;20069;-88
2022/01/16 09:48:51;;;;;;;63.92;28.60;;;3.60;99.90;;;;;;4944153;28;20032;-88
2022/01/16 09:51:17;;;;;;;41.03;18.75;;;3.70;99.90;;;;;;4944447;28;20035;-88
2022/01/16 09:53:45;;;;;;;73.03;30.15;;;3.60;99.90;;;;;;4942678;28;20438;-88
2022/01/16 09:56:10;;;;;;;32.50;16.33;;;3.60;99.90;;;;;;4942219;28;20089;-88
2022/01/16 09:58:37;;;;;;;57.15;24.10;;;3.60;99.90;;;;;;4933644;28;20041;-88
2022/01/16 10:01:03;;;;;;;38.40;18.75;;;3.60;99.90;;;;;;4929349;28;20036;-87
2022/01/16 10:03:54;;;;;;;40.25;19.85;;;3.70;99.90;;;;;;4922588;28;20031;-89
2022/01/16 10:06:22;;;;;;;61.90;28.85;;;3.70;99.90;;;;;;4931196;28;20071;-87
2022/01/16 10:08:54;;;;;;;51.70;23.38;;;3.70;99.90;;;;;;4940301;28;20446;-87
2022/01/16 10:11:39;;;;;;;60.40;28.35;;;3.80;99.90;;;;;;4954035;28;20039;-87
2022/01/16 10:14:21;;;;;;;64.55;32.33;;;3.80;99.90;;;;;;4941176;28;20091;-87
2022/01/16 10:16:47;;;;;;;41.75;21.42;;;3.90;99.90;;;;;;4933666;28;20487;-87
2022/01/16 10:19:29;;;;;;;43.60;20.90;;;3.90;99.90;;;;;;4933417;28;20125;-87
2022/01/16 10:22:01;;;;;;;31.10;14.90;;;3.90;99.90;;;;;;4926597;28;20486;-87
2022/01/16 10:24:29;;;;;;;42.40;18.52;;;3.90;99.90;;;;;;4919603;28;20039;-87
2022/01/16 10:27:07;;;;;;;59.63;29.15;;;4.00;99.90;;;;;;4915793;28;20042;-87
2022/01/16 10:29:37;;;;;;;58.28;25.83;;;4.00;99.90;;;;;;4945112;28;20046;-86
2022/01/16 10:32:23;;;;;;;51.05;23.58;;;4.10;99.90;;;;;;4941244;28;20031;-87
2022/01/16 10:34:51;;;;;;;66.35;29.00;;;4.10;99.90;;;;;;4932602;28;20042;-87
2022/01/16 10:37:24;;;;;;;47.10;21.83;;;4.10;99.90;;;;;;4957513;28;20540;-87
2022/01/16 10:40:10;;;;;;;62.55;30.25;;;4.10;99.90;;;;;;4929043;28;20098;-87
2022/01/16 10:42:39;;;;;;;33.35;16.63;;;4.20;99.90;;;;;;4922888;28;20038;-87
2022/01/16 10:45:14;;;;;;;54.60;26.20;;;4.20;99.90;;;;;;4916790;28;20026;-87
2022/01/16 10:47:51;;;;;;;65.07;29.03;;;4.10;99.90;;;;;;4928505;28;20063;-87
2022/01/16 10:50:24;;;;;;;45.97;22.67;;;4.20;99.90;;;;;;4928743;28;20042;-87
2022/01/16 10:53:12;;;;;;;47.33;21.42;;;4.20;99.90;;;;;;4903641;28;20031;-87
2022/01/16 10:55:53;;;;;;;55.55;19.35;;;4.20;99.90;;;;;;4930135;28;20034;-87
2022/01/16 10:58:30;;;;;;;26.23;15.20;;;4.30;99.90;;;;;;4902386;28;20031;-87
2022/01/16 11:01:04;;;;;;;40.13;18.00;;;4.30;99.90;;;;;;4927270;28;20030;-87
2022/01/16 11:03:40;;;;;;;53.72;25.83;;;4.30;99.90;;;;;;4918502;28;20201;-87
2022/01/16 11:06:06;;;;;;;43.88;15.57;;;4.40;99.90;;;;;;4910385;28;20030;-87
2022/01/16 11:08:34;;;;;;;45.83;20.20;;;4.40;99.90;;;;;;4931808;28;20388;-88
2022/01/16 11:11:03;;;;;;;44.97;19.13;;;4.40;99.90;;;;;;4930546;28;20436;-87
2022/01/16 11:13:34;;;;;;;40.53;20.15;;;4.50;99.90;;;;;;4928908;28;20099;-87
2022/01/16 11:16:07;;;;;;;68.97;31.77;;;4.50;99.90;;;;;;4914884;28;20031;-87
2022/01/16 11:18:37;;;;;;;39.90;17.20;;;4.50;99.90;;;;;;4930809;28;20083;-87
2022/01/16 11:21:16;;;;;;;40.67;18.02;;;4.50;99.90;;;;;;4924049;28;20018;-86
2022/01/16 11:24:23;;;;;;;51.60;25.85;;;4.50;99.90;;;;;;4936854;28;20031;-86
2022/01/16 11:26:50;;;;;;;40.63;19.83;;;4.60;99.90;;;;;;4947324;28;20065;-86
2022/01/16 11:29:18;;;;;;;52.80;23.35;;;4.60;99.90;;;;;;4925101;28;20040;-86
2022/01/16 11:31:50;;;;;;;47.15;22.38;;;4.60;99.90;;;;;;4925886;28;20580;-86
2022/01/16 11:34:15;;;;;;;47.08;20.23;;;4.60;99.90;;;;;;4905552;28;20035;-86
2022/01/16 11:36:41;;;;;;;42.25;17.88;;;4.60;99.90;;;;;;4907826;28;20491;-86
2022/01/16 11:39:12;;;;;;;47.08;18.10;;;4.70;99.90;;;;;;4926244;28;20023;-86
2022/01/16 11:41:54;;;;;;;50.22;21.80;;;4.70;99.90;;;;;;4908496;28;20089;-86
2022/01/16 11:44:31;;;;;;;39.97;19.02;;;4.70;99.90;;;;;;4917786;28;20043;-86
2022/01/16 11:47:03;;;;;;;67.70;31.17;;;4.80;99.90;;;;;;4920699;28;20035;-86
2022/01/16 11:49:41;;;;;;;50.45;21.17;;;4.80;99.90;;;;;;4922673;28;20055;-86
2022/01/16 11:52:10;;;;;;;52.83;21.67;;;4.90;99.90;;;;;;4908495;28;20479;-86
2022/01/16 11:54:49;;;;;;;55.65;27.65;;;5.00;99.90;;;;;;4912166;28;20511;-86
2022/01/16 11:57:20;;;;;;;47.83;18.70;;;5.00;99.90;;;;;;4905232;29;20127;-86
2022/01/16 11:59:46;;;;;;;55.47;23.15;;;5.10;99.90;;;;;;4913766;28;20042;-89
2022/01/16 12:02:17;;;;;;;46.10;21.23;;;5.10;99.90;;;;;;4912709;28;20043;-86
2022/01/16 12:04:54;;;;;;;69.05;30.17;;;5.20;99.90;;;;;;4901422;28;20118;-86
2022/01/16 12:07:45;;;;;;;49.53;20.15;;;5.20;99.90;;;;;;4917372;28;20042;-86
2022/01/16 12:10:33;;;;;;;50.60;27.13;;;5.20;99.90;;;;;;4898862;28;20744;-87
2022/01/16 12:12:59;;;;;;;52.45;21.52;;;5.40;99.90;;;;;;4886246;28;20039;-86
2022/01/16 12:15:27;;;;;;;46.20;18.98;;;5.40;99.90;;;;;;4900242;28;20049;-86
2022/01/16 12:18:05;;;;;;;51.53;21.58;;;5.40;99.90;;;;;;4538103;28;10000742;-86
2022/01/16 12:20:31;;;;;;;60.83;24.25;;;5.40;99.90;;;;;;4897832;28;21226;-87
2022/01/16 12:23:08;;;;;;;42.72;16.42;;;5.50;99.90;;;;;;4897601;28;20039;-87
2022/01/16 12:25:39;;;;;;;50.00;21.45;;;5.50;99.90;;;;;;4930274;28;20038;-87
2022/01/16 12:28:08;;;;;;;72.32;27.48;;;5.60;99.90;;;;;;4927644;28;20067;-87
2022/01/16 12:30:55;;;;;;;57.30;27.80;;;5.70;99.90;;;;;;4936943;28;20035;-87
2022/01/16 12:33:23;;;;;;;37.53;16.85;;;5.60;99.90;;;;;;4965951;28;20412;-86
2022/01/16 12:35:54;;;;;;;42.45;18.75;;;5.70;99.90;;;;;;4943316;28;20097;-87
2022/01/16 12:38:30;;;;;;;52.60;22.27;;;5.70;99.90;;;;;;4948182;28;20035;-87
2022/01/16 12:41:17;;;;;;;55.22;25.02;;;5.70;99.90;;;;;;4927447;28;20046;-87
2022/01/16 12:43:54;;;;;;;50.50;22.10;;;5.70;99.90;;;;;;4926783;28;20035;-87
2022/01/16 12:46:41;;;;;;;71.10;32.15;;;5.70;99.90;;;;;;4925382;28;20045;-87
2022/01/16 12:49:15;;;;;;;38.58;16.80;;;5.70;99.90;;;;;;4946937;28;20558;-86
2022/01/16 12:51:42;;;;;;;61.67;25.15;;;5.60;99.90;;;;;;4911895;28;20031;-86
2022/01/16 12:54:12;;;;;;;42.70;17.52;;;5.60;99.90;;;;;;4943171;28;20044;-86
2022/01/16 12:57:14;;;;;;;49.25;19.70;;;5.60;99.90;;;;;;4921547;28;20031;-86
2022/01/16 12:59:48;;;;;;;49.80;21.33;;;5.50;99.90;;;;;;4914690;28;20076;-87
2022/01/16 13:02:13;;;;;;;49.58;22.92;;;5.50;99.90;;;;;;4888723;28;20034;-86
2022/01/16 13:04:43;;;;;;;50.40;22.98;;;5.50;99.90;;;;;;4920032;28;20026;-86
2022/01/16 13:07:13;;;;;;;54.80;19.48;;;5.40;99.90;;;;;;4959458;28;20059;-86
2022/01/16 13:09:52;;;;;;;51.65;21.88;;;5.40;99.90;;;;;;4913545;29;20031;-86
2022/01/16 13:12:17;;;;;;;39.58;15.05;;;5.40;99.90;;;;;;4927777;28;20197;-86
2022/01/16 13:14:43;;;;;;;53.10;18.40;;;5.40;99.90;;;;;;4933508;28;20102;-86
2022/01/16 13:17:11;;;;;;;47.47;21.98;;;5.30;99.90;;;;;;4903480;28;20061;-86
2022/01/16 13:19:50;;;;;;;64.78;27.02;;;5.30;99.90;;;;;;4934276;28;20569;-87
2022/01/16 13:22:25;;;;;;;66.15;29.52;;;5.40;99.90;;;;;;4907311;28;20027;-86
2022/01/16 13:25:06;;;;;;;32.58;14.45;;;5.30;99.90;;;;;;4909031;28;20039;-86
2022/01/16 13:27:34;;;;;;;48.78;18.92;;;5.20;99.90;;;;;;4925438;28;20035;-86
2022/01/16 13:30:01;;;;;;;58.03;22.67;;;5.20;99.90;;;;;;4917729;28;20045;-87